Archiv-/Tagesdaten

--Timestamp---	Temp	Chill	HIndex	Humid	Dewpt	Wind	HiWind	WindDir	Rain	Barom	        Solar	ET	UV
--------------	----	-----	------	-----	-----	----	------	-------	----	-----	        -----	--	--
20090512 00:05	14.6	14.6	14.6	81	11.3	5	11	112	0.00	1013.447	0	0.000	0
20090512 00:10	14.6	14.6	14.6	81	11.3	6	11	112	0.00	1013.481	0	0.000	0
20090512 00:15	14.5	14.5	14.5	81	11.3	5	11	112	0.00	1013.515	0	0.000	0
20090512 00:20	14.6	14.6	14.6	81	11.3	5	14	112	0.00	1013.583	0	0.000	0
20090512 00:25	14.6	14.6	14.6	82	11.5	5	11	112	0.00	1013.549	0	0.000	0
20090512 00:30	14.6	14.6	14.6	83	11.7	5	8	135	0.00	1013.583	0	0.000	0
20090512 00:35	14.5	14.5	14.5	83	11.6	3	10	112	0.00	1013.684	0	0.000	0
20090512 00:40	14.4	14.4	14.4	84	11.8	2	6	135	0.00	1013.854	0	0.000	0
20090512 00:45	14.4	14.4	14.4	84	11.8	0	3	135	0.00	1013.922	0	0.000	0
20090512 00:50	14.4	14.4	14.4	84	11.7	2	3	135	0.00	1013.955	0	0.000	0
20090512 00:55	14.3	14.3	14.3	84	11.6	2	5	135	0.00	1014.023	0	0.000	0
20090512 01:00	14.2	14.2	14.2	84	11.6	0	3	135	0.00	1014.125	0	0.020	0
20090512 01:05	14.2	14.2	14.2	85	11.7	0	0	135	0.00	1014.091	0	0.000	0
20090512 01:10	14.2	14.2	14.2	86	11.9	0	3	135	0.20	1014.192	0	0.000	0
20090512 01:15	14.2	14.2	14.2	86	11.9	2	5	135	0.00	1014.429	0	0.000	0
20090512 01:20	14.1	14.1	14.1	87	12.0	11	29	292	0.00	1015.581	0	0.000	0
20090512 01:25	13.8	13.8	13.8	88	11.9	19	39	292	1.40	1015.716	0	0.000	0
20090512 01:30	13.4	13.4	13.4	88	11.5	18	43	292	0.00	1015.784	0	0.000	0
20090512 01:35	13.0	13.0	13.0	88	11.1	18	29	270	0.00	1015.886	0	0.000	0
20090512 01:40	12.7	12.7	12.7	89	11.0	14	29	270	0.20	1015.852	0	0.000	0
20090512 01:45	12.4	12.4	12.4	89	10.7	11	24	292	0.00	1015.750	0	0.000	0
20090512 01:50	12.3	12.3	12.3	89	10.5	10	19	292	0.00	1015.547	0	0.000	0
20090512 01:55	12.2	12.2	12.2	90	10.6	3	14	22	0.00	1014.937	0	0.000	0
20090512 02:00	12.2	12.2	12.2	90	10.6	3	11	0	0.00	1015.208	0	0.020	0
20090512 02:05	12.1	12.1	12.1	90	10.5	3	6	0	0.00	1014.937	0	0.000	0
20090512 02:10	12.1	12.1	12.1	90	10.5	3	8	45	0.00	1014.700	0	0.000	0
20090512 02:15	12.0	12.0	12.0	90	10.4	3	5	45	0.00	1014.700	0	0.000	0
20090512 02:20	12.0	12.0	12.0	90	10.4	0	3	45	0.00	1014.768	0	0.000	0
20090512 02:25	12.0	12.0	12.0	90	10.4	0	0	45	0.00	1014.802	0	0.000	0
20090512 02:30	12.0	12.0	12.0	90	10.4	0	0	45	0.00	1014.633	0	0.000	0
20090512 02:35	12.1	12.1	12.1	90	10.5	0	2	45	0.00	1014.396	0	0.000	0
20090512 02:40	12.1	12.1	12.1	91	10.6	0	3	45	0.00	1014.226	0	0.000	0
20090512 02:45	12.1	12.1	12.1	91	10.7	0	3	45	0.00	1014.192	0	0.000	0
20090512 02:50	12.1	12.1	12.1	91	10.7	0	5	45	0.00	1014.159	0	0.000	0
20090512 02:55	12.1	12.1	12.1	91	10.7	0	3	135	0.00	1014.091	0	0.000	0
20090512 03:00	12.1	12.1	12.1	91	10.7	2	6	135	0.00	1014.023	0	0.000	0
20090512 03:05	12.1	12.1	12.1	91	10.7	0	5	157	0.00	1014.125	0	0.000	0
20090512 03:10	12.1	12.1	12.1	91	10.7	2	3	157	0.00	1014.125	0	0.000	0
20090512 03:15	12.1	12.1	12.1	91	10.7	2	5	157	0.00	1014.091	0	0.000	0
20090512 03:20	12.1	12.1	12.1	91	10.7	2	5	157	0.00	1014.091	0	0.000	0
20090512 03:25	12.1	12.1	12.1	92	10.8	2	6	157	0.00	1014.091	0	0.000	0
20090512 03:30	12.2	12.2	12.2	92	10.9	2	6	180	0.00	1014.091	0	0.000	0
20090512 03:35	12.2	12.2	12.2	92	11.0	2	8	180	0.00	1014.091	0	0.000	0
20090512 03:40	12.2	12.2	12.2	92	11.0	3	6	180	0.00	1014.091	0	0.000	0
20090512 03:45	12.2	12.2	12.2	92	10.9	2	10	180	0.00	1014.125	0	0.000	0
20090512 03:50	12.2	12.2	12.2	92	10.9	0	5	180	0.00	1014.125	0	0.000	0
20090512 03:55	12.2	12.2	12.2	92	11.0	3	10	180	0.00	1014.192	0	0.000	0
20090512 04:00	12.2	12.2	12.2	92	11.0	2	6	180	0.00	1014.260	0	0.000	0
20090512 04:05	12.2	12.2	12.2	92	11.0	2	8	180	0.00	1014.463	0	0.000	0
20090512 04:10	12.3	12.3	12.3	92	11.0	2	5	180	0.00	1014.497	0	0.000	0
20090512 04:15	12.3	12.3	12.3	92	11.1	2	6	180	0.00	1014.497	0	0.000	0
20090512 04:20	12.3	12.3	12.3	92	11.1	3	11	180	0.00	1014.463	0	0.000	0
20090512 04:25	12.3	12.3	12.3	92	11.1	5	11	202	0.00	1014.328	0	0.000	0
20090512 04:30	12.3	12.3	12.3	92	11.0	2	8	180	0.00	1014.396	0	0.000	0
20090512 04:35	12.3	12.3	12.3	92	11.0	2	8	180	0.00	1014.463	0	0.000	0
20090512 04:40	12.3	12.3	12.3	92	11.0	2	6	180	0.00	1014.463	0	0.000	0
20090512 04:45	12.3	12.3	12.3	92	11.0	3	5	180	0.00	1014.599	0	0.000	0
20090512 04:50	12.3	12.3	12.3	92	11.0	5	10	202	0.00	1014.565	0	0.000	0
20090512 04:55	12.2	12.2	12.2	92	11.0	0	5	202	0.00	1014.666	0	0.000	0
20090512 05:00	12.2	12.2	12.2	92	10.9	2	5	202	0.00	1014.937	0	0.000	0
20090512 05:05	12.1	12.1	12.1	92	10.8	0	2	202	0.00	1014.870	0	0.000	0
20090512 05:10	12.1	12.1	12.1	92	10.8	2	6	202	0.00	1015.005	0	0.000	0
20090512 05:15	12.1	12.1	12.1	93	11.0	3	8	202	0.00	1015.005	0	0.000	0
20090512 05:20	12.2	12.2	12.2	93	11.1	3	10	0	0.00	1015.005	0	0.000	0
20090512 05:25	12.1	12.1	12.1	92	10.8	5	10	22	0.00	1015.073	0	0.000	0
20090512 05:30	12.1	12.1	12.1	93	11.0	3	6	22	0.00	1015.039	0	0.000	0
20090512 05:35	12.1	12.1	12.1	93	11.0	3	6	0	0.00	1015.039	0	0.000	0
20090512 05:40	12.1	12.1	12.1	93	11.0	3	8	0	0.00	1015.039	0	0.000	0
20090512 05:45	12.1	12.1	12.1	93	11.0	2	6	0	0.00	1014.937	1	0.000	0
20090512 05:50	12.1	12.1	12.1	93	11.0	3	5	0	0.00	1014.937	6	0.000	0
20090512 05:55	12.1	12.1	12.1	93	11.0	3	6	0	0.00	1014.870	10	0.000	0
20090512 06:00	12.0	12.0	12.0	93	10.9	3	6	22	0.00	1014.768	12	0.000	0
20090512 06:05	12.0	12.0	12.0	92	10.7	2	5	22	0.00	1014.971	17	0.000	0
20090512 06:10	12.0	12.0	12.0	92	10.7	3	6	22	0.00	1014.971	22	0.000	0
20090512 06:15	12.0	12.0	12.0	93	10.9	2	5	22	0.00	1015.039	31	0.000	0
20090512 06:20	12.0	12.0	12.0	93	10.9	0	3	22	0.00	1015.141	38	0.000	0
20090512 06:25	12.1	12.1	12.1	93	11.0	2	5	22	0.00	1015.141	36	0.000	0
20090512 06:30	12.1	12.1	12.1	93	11.0	0	3	22	0.00	1015.141	38	0.000	0
20090512 06:35	12.1	12.1	12.1	93	11.0	0	3	22	0.00	1015.208	41	0.000	0
20090512 06:40	12.1	12.1	12.1	93	11.0	0	3	22	0.00	1015.039	42	0.000	0
20090512 06:45	12.1	12.1	12.1	93	11.0	0	2	22	0.00	1015.039	44	0.000	0
20090512 06:50	12.2	12.2	12.2	93	11.1	0	3	22	0.00	1015.039	60	0.000	0
20090512 06:55	12.2	12.2	12.2	93	11.1	0	2	22	0.00	1015.039	88	0.000	0
20090512 07:00	12.2	12.2	12.2	93	11.1	0	2	22	0.00	1015.141	82	0.020	0
20090512 07:05	12.3	12.3	12.3	93	11.2	0	2	22	0.00	1015.344	69	0.000	0
20090512 07:10	12.4	12.4	12.4	93	11.3	0	0	22	0.00	1015.411	62	0.000	0
20090512 07:15	12.5	12.5	12.5	93	11.4	0	3	22	0.00	1015.208	71	0.000	0
20090512 07:20	12.6	12.6	12.6	92	11.3	2	3	22	0.00	1015.276	98	0.000	0
20090512 07:25	12.6	12.6	12.6	92	11.3	2	6	22	0.00	1015.276	131	0.000	0
20090512 07:30	12.7	12.7	12.7	92	11.4	0	3	22	0.00	1015.411	104	0.000	0
20090512 07:35	12.8	12.8	12.8	91	11.3	2	3	22	0.00	1015.411	81	0.000	0
20090512 07:40	12.8	12.8	12.8	91	11.4	0	3	22	0.00	1015.513	72	0.000	0
20090512 07:45	12.9	12.9	12.9	91	11.5	0	3	22	0.00	1015.513	69	0.000	0
20090512 07:50	13.0	13.0	13.0	90	11.4	2	5	22	0.00	1015.716	69	0.000	0
20090512 07:55	12.9	12.9	12.9	90	11.3	2	5	22	0.00	1015.750	70	0.000	0
20090512 08:00	13.0	13.0	13.0	90	11.4	2	5	22	0.00	1015.581	96	0.040	0
20090512 08:05	13.0	13.0	13.0	90	11.4	3	6	22	0.00	1015.649	111	0.000	0
20090512 08:10	13.1	13.1	13.1	90	11.5	3	6	22	0.00	1015.750	84	0.000	0
20090512 08:15	13.1	13.1	13.1	90	11.5	5	8	45	0.00	1015.716	96	0.000	0
20090512 08:20	13.1	13.1	13.1	90	11.5	3	8	67	0.00	1015.784	70	0.000	0
20090512 08:25	13.2	13.2	13.2	90	11.6	3	6	45	0.00	1015.818	57	0.000	0
20090512 08:30	13.2	13.2	13.2	90	11.6	5	8	45	0.00	1015.886	75	0.000	0
20090512 08:35	13.2	13.2	13.2	90	11.6	3	10	67	0.00	1015.953	68	0.000	0
20090512 08:40	13.1	13.1	13.1	90	11.5	3	8	67	0.00	1015.987	95	0.000	0
20090512 08:45	13.2	13.2	13.2	90	11.6	3	6	112	0.00	1016.055	149	0.000	1
20090512 08:50	13.3	13.3	13.3	90	11.7	5	8	45	0.00	1016.224	152	0.000	1
20090512 08:55	13.4	13.4	13.4	90	11.8	5	11	45	0.00	1016.123	131	0.000	1
20090512 09:00	13.4	13.4	13.4	90	11.8	5	8	22	0.00	1016.089	108	0.040	1
20090512 09:05	13.3	13.3	13.3	90	11.7	6	11	22	0.00	1016.360	106	0.000	1
20090512 09:10	13.1	13.1	13.1	91	11.7	6	10	45	0.00	1016.427	100	0.000	1
20090512 09:15	12.8	12.8	12.8	90	11.2	8	16	22	0.00	1016.427	73	0.000	0
20090512 09:20	12.5	12.5	12.5	91	11.1	10	18	22	0.00	1016.360	104	0.000	1
20090512 09:25	12.4	12.4	12.4	92	11.1	8	16	22	0.00	1016.461	115	0.000	1
20090512 09:30	12.4	12.4	12.4	92	11.1	5	10	45	0.00	1016.563	105	0.000	1
20090512 09:35	12.3	12.3	12.3	92	11.1	8	16	45	0.00	1016.597	187	0.000	1
20090512 09:40	12.4	12.4	12.4	93	11.3	6	18	22	0.00	1016.631	179	0.000	1
20090512 09:45	12.3	12.3	12.3	92	11.0	10	16	22	0.00	1016.631	119	0.000	1
20090512 09:50	12.3	12.3	12.3	92	11.1	8	16	22	0.00	1016.597	117	0.000	1
20090512 09:55	12.3	12.3	12.3	92	11.1	6	11	45	0.00	1016.461	93	0.000	1
20090512 10:00	12.2	12.2	12.2	92	10.9	8	16	45	0.00	1016.394	110	0.060	1
20090512 10:05	12.2	12.2	12.2	92	10.9	10	16	45	0.00	1016.495	122	0.000	1
20090512 10:10	12.1	12.1	12.1	92	10.8	11	18	45	0.00	1016.495	125	0.000	1
20090512 10:15	11.9	11.9	11.9	92	10.6	13	21	22	0.00	1016.529	101	0.000	1
20090512 10:20	11.8	11.8	11.8	92	10.5	11	19	22	0.00	1016.698	81	0.000	1
20090512 10:25	11.7	11.7	11.7	92	10.4	10	18	22	0.00	1016.800	137	0.000	1
20090512 10:30	11.6	11.6	11.6	92	10.4	6	11	22	0.00	1016.935	105	0.000	1
20090512 10:35	11.6	11.6	11.6	92	10.4	6	11	22	0.00	1016.969	125	0.000	1
20090512 10:40	11.8	11.8	11.8	93	10.7	5	10	22	0.00	1016.969	166	0.000	1
20090512 10:45	11.9	11.9	11.9	93	10.8	6	10	67	0.00	1017.105	150	0.000	2
20090512 10:50	11.8	11.8	11.8	92	10.6	8	11	45	0.00	1017.172	159	0.000	1
20090512 10:55	11.9	11.9	11.9	92	10.7	6	10	67	0.00	1017.105	123	0.000	1
20090512 11:00	11.9	11.9	11.9	92	10.6	8	14	45	0.00	1016.834	181	0.060	2
20090512 11:05	11.9	11.9	11.9	92	10.7	8	14	45	0.00	1017.003	232	0.000	2
20090512 11:10	12.1	12.1	12.1	92	10.8	8	16	45	0.00	1016.868	174	0.000	2
20090512 11:15	12.1	12.1	12.1	92	10.8	8	14	45	0.00	1016.868	156	0.000	1
20090512 11:20	12.0	12.0	12.0	91	10.6	6	14	45	0.00	1017.037	151	0.000	1
20090512 11:25	12.0	12.0	12.0	91	10.6	8	14	45	0.00	1017.037	176	0.000	2
20090512 11:30	12.1	12.1	12.1	91	10.7	6	16	22	0.00	1017.139	235	0.000	2
20090512 11:35	12.2	12.2	12.2	91	10.8	8	11	45	0.00	1017.071	213	0.000	2
20090512 11:40	12.3	12.3	12.3	91	10.9	6	14	45	0.00	1016.935	238	0.000	2
20090512 11:45	12.4	12.4	12.4	91	11.0	6	14	45	0.00	1017.037	238	0.000	2
20090512 11:50	12.6	12.6	12.6	90	11.0	6	13	45	0.00	1017.003	188	0.000	2
20090512 11:55	12.7	12.7	12.7	90	11.1	8	14	67	0.00	1016.935	226	0.000	2
20090512 12:00	12.8	12.8	12.8	90	11.2	8	16	45	0.00	1016.868	188	0.080	2
20090512 12:05	12.8	12.8	12.8	90	11.2	10	14	67	0.00	1016.800	152	0.000	1
20090512 12:10	12.8	12.8	12.8	90	11.2	8	16	45	0.00	1016.834	152	0.000	1
20090512 12:15	12.8	12.8	12.8	90	11.2	8	11	67	0.00	1016.766	134	0.000	1
20090512 12:20	12.8	12.8	12.8	90	11.2	8	16	45	0.00	1016.800	177	0.000	2
20090512 12:25	12.8	12.8	12.8	90	11.2	10	14	45	0.00	1016.800	251	0.000	2
20090512 12:30	13.0	13.0	13.0	90	11.4	6	14	45	0.00	1016.800	241	0.000	2
20090512 12:35	13.1	13.1	13.1	90	11.5	8	14	45	0.00	1016.732	175	0.000	2
20090512 12:40	13.1	13.1	13.1	89	11.3	10	14	45	0.00	1016.834	154	0.000	2
20090512 12:45	13.2	13.2	13.2	90	11.6	6	11	67	0.00	1016.834	145	0.000	1
20090512 12:50	13.2	13.2	13.2	89	11.4	10	16	45	0.00	1016.834	178	0.000	2
20090512 12:55	13.2	13.2	13.2	89	11.4	8	11	67	0.00	1016.935	162	0.000	2
20090512 13:00	13.2	13.2	13.2	89	11.4	6	13	0	0.00	1017.240	89	0.080	1
20090512 13:05	13.2	13.2	13.2	89	11.4	5	6	22	0.00	1017.680	66	0.000	1
20090512 13:10	13.2	13.2	13.2	90	11.6	5	10	45	0.00	1017.579	80	0.000	1
20090512 13:15	13.2	13.2	13.2	90	11.6	5	11	22	0.00	1017.443	101	0.000	1
20090512 13:20	13.2	13.2	13.2	90	11.6	8	14	45	0.00	1017.409	152	0.000	2
20090512 13:25	13.2	13.2	13.2	90	11.6	8	16	45	0.00	1017.443	157	0.000	2
20090512 13:30	13.1	13.1	13.1	91	11.6	6	11	22	0.00	1017.443	147	0.000	2
20090512 13:35	13.1	13.1	13.1	91	11.7	6	11	22	0.00	1017.511	201	0.000	2
20090512 13:40	13.2	13.2	13.2	91	11.7	6	11	22	0.00	1017.647	121	0.000	1
20090512 13:45	13.2	13.2	13.2	91	11.7	6	18	22	0.00	1017.816	89	0.000	1
20090512 13:50	13.2	13.2	13.2	91	11.7	3	10	22	0.00	1018.121	55	0.000	0
20090512 13:55	13.1	13.1	13.1	91	11.6	3	8	22	0.00	1018.222	59	0.000	0
20090512 14:00	12.9	12.9	12.9	91	11.5	3	11	0	0.00	1018.222	66	0.040	1
20090512 14:05	12.8	12.8	12.8	91	11.4	5	11	22	0.00	1018.256	89	0.000	1
20090512 14:10	12.8	12.8	12.8	91	11.3	5	14	22	0.00	1018.358	69	0.000	1
20090512 14:15	12.6	12.6	12.6	91	11.2	11	23	22	0.00	1018.188	79	0.000	1
20090512 14:20	12.6	12.6	12.6	91	11.1	13	27	22	0.00	1018.154	86	0.000	1
20090512 14:25	12.4	12.4	12.4	90	10.8	14	26	22	0.00	1018.087	95	0.000	1
20090512 14:30	12.4	12.4	12.4	90	10.8	13	26	45	0.00	1018.392	83	0.000	1
20090512 14:35	12.3	12.3	12.3	90	10.7	13	21	45	0.00	1018.425	86	0.000	1
20090512 14:40	12.4	12.4	12.4	91	11.0	10	18	22	0.00	1018.358	158	0.000	2
20090512 14:45	12.6	12.6	12.6	91	11.2	10	18	45	0.00	1018.121	217	0.000	2
20090512 14:50	12.7	12.7	12.7	91	11.3	10	16	45	0.00	1018.154	147	0.000	1
20090512 14:55	12.7	12.7	12.7	90	11.1	10	16	45	0.00	1018.188	136	0.000	1
20090512 15:00	12.6	12.6	12.6	89	10.8	6	16	45	0.00	1018.425	114	0.060	1
20090512 15:05	12.6	12.6	12.6	89	10.8	6	11	45	0.00	1018.730	66	0.000	1
20090512 15:10	12.5	12.5	12.5	89	10.7	5	14	45	0.00	1018.967	47	0.000	0
20090512 15:15	12.5	12.5	12.5	90	10.9	6	14	67	0.00	1017.816	110	0.000	1
20090512 15:20	12.7	12.7	12.7	91	11.2	14	23	67	0.00	1017.376	302	0.000	3
20090512 15:25	13.0	13.0	13.0	92	11.7	11	23	67	0.00	1017.782	615	0.000	5
20090512 15:30	13.6	13.6	13.6	92	12.3	6	14	67	0.00	1017.884	739	0.000	5
20090512 15:35	13.7	13.7	13.7	91	12.2	5	11	67	0.00	1017.884	329	0.000	4
20090512 15:40	13.5	13.5	13.5	90	11.9	8	18	67	0.00	1017.748	237	0.000	2
20090512 15:45	13.5	13.5	13.5	90	11.9	8	18	90	0.00	1017.714	272	0.000	2
20090512 15:50	13.7	13.7	13.7	91	12.2	5	11	90	0.00	1017.714	306	0.000	3
20090512 15:55	13.8	13.8	13.8	89	12.0	10	21	90	0.00	1017.647	334	0.000	3
20090512 16:00	13.9	13.9	13.9	88	11.9	10	19	112	0.00	1017.545	287	0.140	3
20090512 16:05	13.9	13.9	13.9	88	12.0	8	23	90	0.00	1017.647	263	0.000	3
20090512 16:10	14.1	14.1	14.1	87	11.9	8	18	112	0.00	1017.748	265	0.000	3
20090512 16:15	14.1	14.1	14.1	87	12.0	8	19	112	0.00	1017.782	220	0.000	2
20090512 16:20	14.2	14.2	14.2	86	11.9	8	21	112	0.00	1017.714	228	0.000	2
20090512 16:25	14.2	14.2	14.2	85	11.7	10	24	90	0.00	1017.714	219	0.000	2
20090512 16:30	14.3	14.3	14.3	86	12.0	8	18	112	0.00	1017.714	361	0.000	2
20090512 16:35	14.4	14.4	14.4	85	12.0	6	11	112	0.00	1017.951	308	0.000	2
20090512 16:40	14.5	14.5	14.5	85	12.0	10	23	112	0.00	1017.714	310	0.000	2
20090512 16:45	14.4	14.4	14.4	84	11.8	10	18	112	0.00	1017.850	288	0.000	2
20090512 16:50	14.4	14.4	14.4	85	12.0	8	18	135	0.00	1017.680	356	0.000	2
20090512 16:55	14.5	14.5	14.5	84	11.8	8	18	112	0.00	1017.613	359	0.000	2
20090512 17:00	14.5	14.5	14.5	84	11.8	8	21	112	0.00	1017.816	249	0.120	2
20090512 17:05	14.4	14.4	14.4	84	11.8	6	11	90	0.00	1017.816	203	0.000	1
20090512 17:10	14.4	14.4	14.4	85	12.0	6	14	135	0.00	1018.019	166	0.000	1
20090512 17:15	14.4	14.4	14.4	84	11.8	5	11	135	0.00	1018.154	142	0.000	1
20090512 17:20	14.3	14.3	14.3	85	11.8	3	8	135	0.00	1018.053	140	0.000	1
20090512 17:25	14.3	14.3	14.3	84	11.6	8	16	112	0.00	1017.985	171	0.000	1
20090512 17:30	14.2	14.2	14.2	85	11.7	3	13	135	0.00	1018.222	116	0.000	1
20090512 17:35	14.2	14.2	14.2	85	11.7	5	14	135	0.00	1018.222	97	0.000	0
20090512 17:40	14.1	14.1	14.1	84	11.4	5	8	135	0.00	1018.459	104	0.000	0
20090512 17:45	14.1	14.1	14.1	84	11.4	5	11	112	0.00	1018.324	81	0.000	0
20090512 17:50	14.0	14.0	14.0	84	11.3	5	14	135	0.00	1018.493	62	0.000	0
20090512 17:55	13.9	13.9	13.9	84	11.3	5	10	135	0.00	1018.696	39	0.000	0
20090512 18:00	13.9	13.9	13.9	85	11.4	0	3	135	0.00	1019.035	23	0.060	0
20090512 18:05	13.8	13.8	13.8	84	11.2	2	5	180	0.00	1019.204	16	0.000	0
20090512 18:10	13.8	13.8	13.8	84	11.2	2	6	180	0.00	1019.306	12	0.000	0
20090512 18:15	13.8	13.8	13.8	84	11.1	2	6	180	0.00	1019.340	11	0.000	0
20090512 18:20	13.7	13.7	13.7	85	11.2	5	8	112	0.00	1019.069	14	0.000	0
20090512 18:25	13.7	13.7	13.7	86	11.4	3	8	135	0.00	1018.696	17	0.000	0
20090512 18:30	13.6	13.6	13.6	86	11.3	5	10	112	0.00	1018.730	21	0.000	0
20090512 18:35	13.5	13.5	13.5	88	11.5	2	8	135	0.00	1018.696	20	0.000	0
20090512 18:40	13.4	13.4	13.4	88	11.5	3	10	135	0.00	1018.662	24	0.000	0
20090512 18:45	13.4	13.4	13.4	88	11.4	3	8	135	0.00	1018.662	19	0.000	0
20090512 18:50	13.3	13.3	13.3	88	11.4	3	8	135	0.00	1018.662	16	0.000	0
20090512 18:55	13.3	13.3	13.3	88	11.3	5	8	112	0.00	1018.696	20	0.000	0
20090512 19:00	13.3	13.3	13.3	88	11.3	6	10	112	0.00	1018.358	64	0.020	0
20090512 19:05	13.3	13.3	13.3	88	11.3	3	8	135	0.00	1018.392	67	0.000	0
20090512 19:10	13.3	13.3	13.3	89	11.6	2	5	135	0.00	1018.256	65	0.000	0
20090512 19:15	13.4	13.4	13.4	89	11.6	3	8	135	0.00	1018.053	116	0.000	0
20090512 19:20	13.5	13.5	13.5	88	11.5	5	11	135	0.00	1018.053	147	0.000	0
20090512 19:25	13.5	13.5	13.5	88	11.5	6	10	135	0.00	1018.256	98	0.000	0
20090512 19:30	13.5	13.5	13.5	88	11.5	3	11	112	0.00	1018.222	77	0.000	0
20090512 19:35	13.5	13.5	13.5	88	11.5	3	10	135	0.00	1018.222	72	0.000	0
20090512 19:40	13.4	13.4	13.4	88	11.5	3	6	67	0.00	1018.087	67	0.000	0
20090512 19:45	13.4	13.4	13.4	88	11.5	2	6	112	0.00	1018.053	42	0.000	0
20090512 19:50	13.3	13.3	13.3	89	11.6	3	6	157	0.00	1018.019	32	0.000	0
20090512 19:55	13.3	13.3	13.3	89	11.5	3	6	90	0.00	1017.951	40	0.000	0
20090512 20:00	13.3	13.3	13.3	89	11.5	2	6	90	0.00	1018.019	45	0.040	0
20090512 20:05	13.2	13.2	13.2	89	11.4	2	5	90	0.00	1017.680	34	0.000	0
20090512 20:10	13.2	13.2	13.2	89	11.4	5	11	90	0.00	1017.613	23	0.000	0
20090512 20:15	13.1	13.1	13.1	89	11.3	3	10	157	0.00	1017.613	17	0.000	0
20090512 20:20	13.0	13.0	13.0	89	11.2	3	8	135	0.00	1017.714	12	0.000	0
20090512 20:25	12.9	12.9	12.9	89	11.1	2	6	112	0.00	1017.748	8	0.000	0
20090512 20:30	12.8	12.8	12.8	89	11.1	3	6	67	0.00	1017.680	7	0.000	0
20090512 20:35	12.7	12.7	12.7	90	11.1	2	6	67	0.00	1017.545	2	0.000	0
20090512 20:40	12.6	12.6	12.6	90	11.0	5	8	67	0.00	1017.409	0	0.000	0
20090512 20:45	12.5	12.5	12.5	90	10.9	2	8	67	0.00	1017.342	0	0.000	0
20090512 20:50	12.4	12.4	12.4	90	10.8	2	6	135	0.00	1017.376	0	0.000	0
20090512 20:55	12.3	12.3	12.3	90	10.7	2	6	135	0.00	1017.409	0	0.000	0
20090512 21:00	12.2	12.2	12.2	91	10.7	2	5	67	0.00	1017.477	0	0.000	0
20090512 21:05	12.1	12.1	12.1	91	10.6	2	6	67	0.00	1017.613	0	0.000	0
20090512 21:10	12.0	12.0	12.0	91	10.6	2	5	90	0.00	1017.782	0	0.000	0
20090512 21:15	11.9	11.9	11.9	91	10.5	2	5	90	0.00	1017.850	0	0.000	0
20090512 21:20	11.9	11.9	11.9	91	10.5	2	5	90	0.00	1018.053	0	0.000	0
20090512 21:25	11.8	11.8	11.8	91	10.4	2	5	90	0.00	1017.884	0	0.000	0
20090512 21:30	11.8	11.8	11.8	92	10.5	3	6	67	0.00	1018.087	0	0.000	0
20090512 21:35	11.8	11.8	11.8	92	10.5	3	8	67	0.00	1018.019	0	0.000	0
20090512 21:40	11.7	11.7	11.7	92	10.5	3	8	67	0.00	1017.782	0	0.000	0
20090512 21:45	11.7	11.7	11.7	92	10.5	5	8	67	0.00	1017.850	0	0.000	0
20090512 21:50	11.8	11.8	11.8	92	10.5	3	8	90	0.00	1018.019	0	0.000	0
20090512 21:55	11.8	11.8	11.8	92	10.5	2	8	45	0.00	1018.053	0	0.000	0
20090512 22:00	11.8	11.8	11.8	92	10.5	3	10	67	0.00	1017.951	0	0.000	0
20090512 22:05	11.8	11.8	11.8	92	10.6	3	10	135	0.00	1017.782	0	0.000	0
20090512 22:10	11.8	11.8	11.8	92	10.6	3	6	135	0.00	1017.748	0	0.000	0
20090512 22:15	11.8	11.8	11.8	92	10.6	5	10	112	0.00	1017.545	0	0.000	0
20090512 22:20	11.8	11.8	11.8	92	10.6	3	8	90	0.00	1017.579	0	0.000	0
20090512 22:25	11.8	11.8	11.8	92	10.5	6	11	90	0.00	1017.477	0	0.000	0
20090512 22:30	11.7	11.7	11.7	92	10.4	3	14	157	0.00	1017.511	0	0.000	0
20090512 22:35	11.6	11.6	11.6	92	10.4	5	13	112	0.00	1017.376	0	0.000	0
20090512 22:40	11.5	11.5	11.5	92	10.2	8	19	112	0.00	1017.376	0	0.000	0
20090512 22:45	11.4	11.4	11.4	92	10.2	6	21	112	0.00	1017.274	0	0.000	0
20090512 22:50	11.4	11.4	11.4	92	10.2	3	10	135	0.00	1017.274	0	0.000	0
20090512 22:55	11.4	11.4	11.4	92	10.2	3	8	157	0.00	1017.342	0	0.000	0
20090512 23:00	11.4	11.4	11.4	92	10.2	5	10	135	0.00	1017.579	0	0.000	0
20090512 23:05	11.4	11.4	11.4	92	10.2	3	5	112	0.00	1017.443	0	0.000	0
20090512 23:10	11.4	11.4	11.4	92	10.1	3	8	135	0.00	1017.308	0	0.000	0
20090512 23:15	11.4	11.4	11.4	92	10.1	5	11	112	0.00	1017.240	0	0.000	0
20090512 23:20	11.3	11.3	11.3	92	10.1	5	13	135	0.00	1017.409	0	0.000	0
20090512 23:25	11.3	11.3	11.3	92	10.1	3	6	135	0.00	1017.376	0	0.000	0
20090512 23:30	11.3	11.3	11.3	92	10.0	6	14	112	0.00	1017.376	0	0.000	0
20090512 23:35	11.2	11.2	11.2	92	10.0	6	14	112	0.00	1017.274	0	0.000	0
20090512 23:40	11.2	11.2	11.2	92	10.0	8	19	112	0.00	1017.105	0	0.000	0
20090512 23:45	11.2	11.2	11.2	92	9.9	8	16	112	0.00	1017.308	0	0.000	0
20090512 23:50	11.2	11.2	11.2	92	9.9	5	16	135	0.00	1017.816	0	0.000	0
20090512 23:55	11.2	11.2	11.2	92	9.9	2	10	112	0.00	1018.019	0	0.000	0
20090512 24:00	11.1	11.1	11.1	92	9.9	5	10	45	0.00	1018.188	0	0.000	0



Please note the license to use and transfer of this data:
http://creativecommons.org/licenses/by-nc-sa/3.0/deed.en

Bitte beachten sie die Lizenz zur Verwertung und Weitergabe der Daten:
http://creativecommons.org/licenses/by-nc-sa/3.0/deed.de

zurück zur Übersicht der Archivdaten (Monats und Tagesdaten)

Cookies helfen bei der Bereitstellung von Inhalten. Durch die Nutzung dieser Seiten erklärst du dich damit einverstanden, dass Cookies auf deinem Rechner gespeichert werden. Weitere Information